sensor_id;sensor_type;location;lat;lon;timestamp;temperature;humidity
20998;DHT22;10657;51.276;6.390;2023-08-17T00:01:32;19.80;99.90
20998;DHT22;10657;51.276;6.390;2023-08-17T00:03:58;19.70;99.90
20998;DHT22;10657;51.276;6.390;2023-08-17T00:06:25;19.50;99.90
20998;DHT22;10657;51.276;6.390;2023-08-17T00:08:52;19.60;99.90
20998;DHT22;10657;51.276;6.390;2023-08-17T00:11:19;19.60;99.90
20998;DHT22;10657;51.276;6.390;2023-08-17T00:13:45;19.60;99.90
20998;DHT22;10657;51.276;6.390;2023-08-17T00:16:12;19.90;99.90
20998;DHT22;10657;51.276;6.390;2023-08-17T00:18:39;19.90;99.90
20998;DHT22;10657;51.276;6.390;2023-08-17T00:21:06;19.70;99.90
20998;DHT22;10657;51.276;6.390;2023-08-17T00:23:32;19.60;99.90
20998;DHT22;10657;51.276;6.390;2023-08-17T00:25:59;19.40;99.90
20998;DHT22;10657;51.276;6.390;2023-08-17T00:28:26;19.30;99.90
20998;DHT22;10657;51.276;6.390;2023-08-17T00:30:53;19.50;99.90
20998;DHT22;10657;51.276;6.390;2023-08-17T00:33:19;19.40;99.90
20998;DHT22;10657;51.276;6.390;2023-08-17T00:35:46;19.60;99.90
20998;DHT22;10657;51.276;6.390;2023-08-17T00:38:13;19.60;99.90
20998;DHT22;10657;51.276;6.390;2023-08-17T00:40:40;19.70;99.90
20998;DHT22;10657;51.276;6.390;2023-08-17T00:43:07;19.60;99.90
20998;DHT22;10657;51.276;6.390;2023-08-17T00:45:35;19.60;99.90
20998;DHT22;10657;51.276;6.390;2023-08-17T00:48:02;19.60;99.90
20998;DHT22;10657;51.276;6.390;2023-08-17T00:50:31;19.60;99.90
20998;DHT22;10657;51.276;6.390;2023-08-17T00:52:58;19.70;99.90
20998;DHT22;10657;51.276;6.390;2023-08-17T00:55:25;19.60;99.90
20998;DHT22;10657;51.276;6.390;2023-08-17T00:57:53;19.60;99.90
20998;DHT22;10657;51.276;6.390;2023-08-17T01:00:24;19.60;99.90
20998;DHT22;10657;51.276;6.390;2023-08-17T01:02:53;19.80;99.90
20998;DHT22;10657;51.276;6.390;2023-08-17T01:05:20;20.10;99.90
20998;DHT22;10657;51.276;6.390;2023-08-17T01:07:47;19.90;99.90
20998;DHT22;10657;51.276;6.390;2023-08-17T01:10:14;19.90;99.90
20998;DHT22;10657;51.276;6.390;2023-08-17T01:12:49;19.50;99.90
20998;DHT22;10657;51.276;6.390;2023-08-17T01:15:23;19.30;99.90
20998;DHT22;10657;51.276;6.390;2023-08-17T01:20:34;19.20;99.90
20998;DHT22;10657;51.276;6.390;2023-08-17T01:23:05;19.20;99.90
20998;DHT22;10657;51.276;6.390;2023-08-17T01:25:33;19.20;99.90
20998;DHT22;10657;51.276;6.390;2023-08-17T01:28:04;19.20;99.90
20998;DHT22;10657;51.276;6.390;2023-08-17T01:30:49;19.20;99.90
20998;DHT22;10657;51.276;6.390;2023-08-17T01:33:40;19.10;99.90
20998;DHT22;10657;51.276;6.390;2023-08-17T01:36:22;19.20;99.90
20998;DHT22;10657;51.276;6.390;2023-08-17T01:38:52;19.00;99.90
20998;DHT22;10657;51.276;6.390;2023-08-17T01:41:22;19.00;99.90
20998;DHT22;10657;51.276;6.390;2023-08-17T01:43:50;19.00;99.90
20998;DHT22;10657;51.276;6.390;2023-08-17T01:46:17;19.10;99.90
20998;DHT22;10657;51.276;6.390;2023-08-17T01:48:45;19.20;99.90
20998;DHT22;10657;51.276;6.390;2023-08-17T01:51:18;19.10;99.90
20998;DHT22;10657;51.276;6.390;2023-08-17T01:53:46;19.10;99.90
20998;DHT22;10657;51.276;6.390;2023-08-17T01:56:13;19.00;99.90
20998;DHT22;10657;51.276;6.390;2023-08-17T01:58:40;19.00;99.90
20998;DHT22;10657;51.276;6.390;2023-08-17T02:01:07;18.90;99.90
20998;DHT22;10657;51.276;6.390;2023-08-17T02:03:34;18.80;99.90
20998;DHT22;10657;51.276;6.390;2023-08-17T02:06:01;18.90;99.90
20998;DHT22;10657;51.276;6.390;2023-08-17T02:08:27;18.90;99.90
20998;DHT22;10657;51.276;6.390;2023-08-17T02:10:54;18.80;99.90
20998;DHT22;10657;51.276;6.390;2023-08-17T02:13:21;18.70;99.90
20998;DHT22;10657;51.276;6.390;2023-08-17T02:15:48;18.70;99.90
20998;DHT22;10657;51.276;6.390;2023-08-17T02:18:15;18.80;99.90
20998;DHT22;10657;51.276;6.390;2023-08-17T02:20:41;18.70;99.90
20998;DHT22;10657;51.276;6.390;2023-08-17T02:23:08;18.70;99.90
20998;DHT22;10657;51.276;6.390;2023-08-17T02:25:40;18.80;99.90
20998;DHT22;10657;51.276;6.390;2023-08-17T02:28:07;18.70;99.90
20998;DHT22;10657;51.276;6.390;2023-08-17T02:30:34;18.60;99.90
20998;DHT22;10657;51.276;6.390;2023-08-17T02:33:00;18.50;99.90
20998;DHT22;10657;51.276;6.390;2023-08-17T02:35:27;18.60;99.90
20998;DHT22;10657;51.276;6.390;2023-08-17T02:37:54;18.80;99.90
20998;DHT22;10657;51.276;6.390;2023-08-17T02:40:21;18.70;99.90
20998;DHT22;10657;51.276;6.390;2023-08-17T02:42:48;18.80;99.90
20998;DHT22;10657;51.276;6.390;2023-08-17T02:45:14;18.70;99.90
20998;DHT22;10657;51.276;6.390;2023-08-17T02:47:41;18.70;99.90
20998;DHT22;10657;51.276;6.390;2023-08-17T02:50:08;18.70;99.90
20998;DHT22;10657;51.276;6.390;2023-08-17T02:52:35;18.70;99.90
20998;DHT22;10657;51.276;6.390;2023-08-17T02:55:02;18.60;99.90
20998;DHT22;10657;51.276;6.390;2023-08-17T02:57:28;18.70;99.90
20998;DHT22;10657;51.276;6.390;2023-08-17T02:59:55;18.60;99.90
20998;DHT22;10657;51.276;6.390;2023-08-17T03:02:22;18.50;99.90
20998;DHT22;10657;51.276;6.390;2023-08-17T03:04:48;18.40;99.90
20998;DHT22;10657;51.276;6.390;2023-08-17T03:07:15;18.40;99.90
20998;DHT22;10657;51.276;6.390;2023-08-17T03:09:42;18.50;99.90
20998;DHT22;10657;51.276;6.390;2023-08-17T03:12:08;18.40;99.90
20998;DHT22;10657;51.276;6.390;2023-08-17T03:14:35;18.40;99.90
20998;DHT22;10657;51.276;6.390;2023-08-17T03:17:02;18.40;99.90
20998;DHT22;10657;51.276;6.390;2023-08-17T03:19:28;18.40;99.90
20998;DHT22;10657;51.276;6.390;2023-08-17T03:21:55;18.40;99.90
20998;DHT22;10657;51.276;6.390;2023-08-17T03:24:22;18.40;99.90
20998;DHT22;10657;51.276;6.390;2023-08-17T03:26:49;18.30;99.90
20998;DHT22;10657;51.276;6.390;2023-08-17T03:29:15;18.40;99.90
20998;DHT22;10657;51.276;6.390;2023-08-17T03:31:42;18.50;99.90
20998;DHT22;10657;51.276;6.390;2023-08-17T03:34:09;18.40;99.90
20998;DHT22;10657;51.276;6.390;2023-08-17T03:36:35;18.30;99.90
20998;DHT22;10657;51.276;6.390;2023-08-17T03:39:02;18.30;99.90
20998;DHT22;10657;51.276;6.390;2023-08-17T03:41:29;18.20;99.90
20998;DHT22;10657;51.276;6.390;2023-08-17T03:43:56;18.20;99.90
20998;DHT22;10657;51.276;6.390;2023-08-17T03:46:23;18.30;99.90
20998;DHT22;10657;51.276;6.390;2023-08-17T03:48:49;18.30;99.90
20998;DHT22;10657;51.276;6.390;2023-08-17T03:51:16;18.30;99.90
20998;DHT22;10657;51.276;6.390;2023-08-17T03:53:43;18.20;99.90
20998;DHT22;10657;51.276;6.390;2023-08-17T03:56:09;18.10;99.90
20998;DHT22;10657;51.276;6.390;2023-08-17T03:58:36;18.10;99.90
20998;DHT22;10657;51.276;6.390;2023-08-17T04:01:04;18.10;99.90
20998;DHT22;10657;51.276;6.390;2023-08-17T04:03:33;18.10;99.90
20998;DHT22;10657;51.276;6.390;2023-08-17T04:06:06;17.90;99.90
20998;DHT22;10657;51.276;6.390;2023-08-17T04:08:37;18.10;99.90
20998;DHT22;10657;51.276;6.390;2023-08-17T04:11:04;18.10;99.90
20998;DHT22;10657;51.276;6.390;2023-08-17T04:13:32;18.00;99.90
20998;DHT22;10657;51.276;6.390;2023-08-17T04:15:58;17.80;99.90
20998;DHT22;10657;51.276;6.390;2023-08-17T04:18:25;17.80;99.90
20998;DHT22;10657;51.276;6.390;2023-08-17T04:20:52;17.90;99.90
20998;DHT22;10657;51.276;6.390;2023-08-17T04:23:21;18.10;99.90
20998;DHT22;10657;51.276;6.390;2023-08-17T04:25:47;17.90;99.90
20998;DHT22;10657;51.276;6.390;2023-08-17T04:28:14;18.00;99.90
20998;DHT22;10657;51.276;6.390;2023-08-17T04:30:42;18.10;99.90
20998;DHT22;10657;51.276;6.390;2023-08-17T04:33:09;18.10;99.90
20998;DHT22;10657;51.276;6.390;2023-08-17T04:35:36;18.00;99.90
20998;DHT22;10657;51.276;6.390;2023-08-17T04:38:03;18.00;99.90
20998;DHT22;10657;51.276;6.390;2023-08-17T04:40:30;17.90;99.90
20998;DHT22;10657;51.276;6.390;2023-08-17T04:42:57;17.90;99.90
20998;DHT22;10657;51.276;6.390;2023-08-17T04:45:24;17.90;99.90
20998;DHT22;10657;51.276;6.390;2023-08-17T04:47:50;17.90;99.90
20998;DHT22;10657;51.276;6.390;2023-08-17T04:50:17;17.90;99.90
20998;DHT22;10657;51.276;6.390;2023-08-17T04:52:44;18.00;99.90
20998;DHT22;10657;51.276;6.390;2023-08-17T04:55:15;18.00;99.90
20998;DHT22;10657;51.276;6.390;2023-08-17T04:57:42;18.00;99.90
20998;DHT22;10657;51.276;6.390;2023-08-17T05:00:09;17.90;99.90
20998;DHT22;10657;51.276;6.390;2023-08-17T05:02:36;18.00;99.90
20998;DHT22;10657;51.276;6.390;2023-08-17T05:05:09;18.00;99.90
20998;DHT22;10657;51.276;6.390;2023-08-17T05:07:36;17.90;99.90
20998;DHT22;10657;51.276;6.390;2023-08-17T05:10:03;17.90;99.90
20998;DHT22;10657;51.276;6.390;2023-08-17T05:12:30;18.00;99.90
20998;DHT22;10657;51.276;6.390;2023-08-17T05:14:56;18.10;99.90
20998;DHT22;10657;51.276;6.390;2023-08-17T05:17:23;17.90;99.90
20998;DHT22;10657;51.276;6.390;2023-08-17T05:19:50;17.90;99.90
20998;DHT22;10657;51.276;6.390;2023-08-17T05:22:18;17.90;99.90
20998;DHT22;10657;51.276;6.390;2023-08-17T05:24:44;18.00;99.90
20998;DHT22;10657;51.276;6.390;2023-08-17T05:27:11;17.90;99.90
20998;DHT22;10657;51.276;6.390;2023-08-17T05:29:38;18.00;99.90
20998;DHT22;10657;51.276;6.390;2023-08-17T05:32:05;17.90;99.90
20998;DHT22;10657;51.276;6.390;2023-08-17T05:34:32;17.70;99.90
20998;DHT22;10657;51.276;6.390;2023-08-17T05:36:58;17.80;99.90
20998;DHT22;10657;51.276;6.390;2023-08-17T05:39:26;17.80;99.90
20998;DHT22;10657;51.276;6.390;2023-08-17T05:41:53;17.90;99.90
20998;DHT22;10657;51.276;6.390;2023-08-17T05:44:19;17.90;99.90
20998;DHT22;10657;51.276;6.390;2023-08-17T05:46:46;17.90;99.90
20998;DHT22;10657;51.276;6.390;2023-08-17T05:49:14;18.00;99.90
20998;DHT22;10657;51.276;6.390;2023-08-17T05:51:40;18.00;99.90
20998;DHT22;10657;51.276;6.390;2023-08-17T05:54:07;18.00;99.90
20998;DHT22;10657;51.276;6.390;2023-08-17T05:56:34;18.00;99.90
20998;DHT22;10657;51.276;6.390;2023-08-17T05:59:00;17.90;99.90
20998;DHT22;10657;51.276;6.390;2023-08-17T06:01:27;18.00;99.90
20998;DHT22;10657;51.276;6.390;2023-08-17T06:03:54;18.10;99.90
20998;DHT22;10657;51.276;6.390;2023-08-17T06:06:21;18.10;99.90
20998;DHT22;10657;51.276;6.390;2023-08-17T06:08:48;18.10;99.90
20998;DHT22;10657;51.276;6.390;2023-08-17T06:11:14;18.20;99.90
20998;DHT22;10657;51.276;6.390;2023-08-17T06:13:41;18.10;99.90
20998;DHT22;10657;51.276;6.390;2023-08-17T06:16:08;18.20;99.90
20998;DHT22;10657;51.276;6.390;2023-08-17T06:18:37;18.20;99.90
20998;DHT22;10657;51.276;6.390;2023-08-17T06:21:05;18.10;99.90
20998;DHT22;10657;51.276;6.390;2023-08-17T06:23:31;18.20;99.90
20998;DHT22;10657;51.276;6.390;2023-08-17T06:25:58;18.20;99.90
20998;DHT22;10657;51.276;6.390;2023-08-17T06:28:26;18.20;99.90
20998;DHT22;10657;51.276;6.390;2023-08-17T06:30:54;18.10;99.90
20998;DHT22;10657;51.276;6.390;2023-08-17T06:33:21;18.10;99.90
20998;DHT22;10657;51.276;6.390;2023-08-17T06:35:48;18.20;99.90
20998;DHT22;10657;51.276;6.390;2023-08-17T06:38:15;18.40;99.90
20998;DHT22;10657;51.276;6.390;2023-08-17T06:40:42;18.30;99.90
20998;DHT22;10657;51.276;6.390;2023-08-17T06:43:09;18.20;99.90
20998;DHT22;10657;51.276;6.390;2023-08-17T06:45:36;18.20;99.90
20998;DHT22;10657;51.276;6.390;2023-08-17T06:48:03;18.30;99.90
20998;DHT22;10657;51.276;6.390;2023-08-17T06:50:30;18.40;99.90
20998;DHT22;10657;51.276;6.390;2023-08-17T06:52:56;18.30;99.90
20998;DHT22;10657;51.276;6.390;2023-08-17T06:55:23;18.30;99.90
20998;DHT22;10657;51.276;6.390;2023-08-17T06:57:50;18.30;99.90
20998;DHT22;10657;51.276;6.390;2023-08-17T07:00:18;18.30;99.90
20998;DHT22;10657;51.276;6.390;2023-08-17T07:02:48;18.30;99.90
20998;DHT22;10657;51.276;6.390;2023-08-17T07:05:22;18.40;99.90
20998;DHT22;10657;51.276;6.390;2023-08-17T07:07:50;18.30;99.90
20998;DHT22;10657;51.276;6.390;2023-08-17T07:10:17;18.30;99.90
20998;DHT22;10657;51.276;6.390;2023-08-17T07:12:43;18.30;99.90
20998;DHT22;10657;51.276;6.390;2023-08-17T07:15:10;18.40;99.90
20998;DHT22;10657;51.276;6.390;2023-08-17T07:17:37;18.30;99.90
20998;DHT22;10657;51.276;6.390;2023-08-17T07:20:04;18.50;99.90
20998;DHT22;10657;51.276;6.390;2023-08-17T07:22:42;18.40;99.90
20998;DHT22;10657;51.276;6.390;2023-08-17T07:25:09;18.60;99.90
20998;DHT22;10657;51.276;6.390;2023-08-17T07:27:36;18.50;99.90
20998;DHT22;10657;51.276;6.390;2023-08-17T07:30:03;18.60;99.90
20998;DHT22;10657;51.276;6.390;2023-08-17T07:32:29;18.60;99.90
20998;DHT22;10657;51.276;6.390;2023-08-17T07:34:56;18.60;99.90
20998;DHT22;10657;51.276;6.390;2023-08-17T07:37:23;18.50;99.90
20998;DHT22;10657;51.276;6.390;2023-08-17T07:39:50;18.60;99.90
20998;DHT22;10657;51.276;6.390;2023-08-17T07:42:17;18.70;99.90
20998;DHT22;10657;51.276;6.390;2023-08-17T07:44:44;18.60;99.90
20998;DHT22;10657;51.276;6.390;2023-08-17T07:47:11;18.60;99.90
20998;DHT22;10657;51.276;6.390;2023-08-17T07:49:37;18.60;99.90
20998;DHT22;10657;51.276;6.390;2023-08-17T07:52:04;18.60;99.90
20998;DHT22;10657;51.276;6.390;2023-08-17T07:54:31;18.60;99.90
20998;DHT22;10657;51.276;6.390;2023-08-17T07:56:58;18.60;99.90
20998;DHT22;10657;51.276;6.390;2023-08-17T07:59:25;18.60;99.90
20998;DHT22;10657;51.276;6.390;2023-08-17T08:01:51;18.50;99.90
20998;DHT22;10657;51.276;6.390;2023-08-17T08:04:18;18.60;99.90
20998;DHT22;10657;51.276;6.390;2023-08-17T08:06:46;18.70;99.90
20998;DHT22;10657;51.276;6.390;2023-08-17T08:09:12;18.70;99.90
20998;DHT22;10657;51.276;6.390;2023-08-17T08:11:39;18.70;99.90
20998;DHT22;10657;51.276;6.390;2023-08-17T08:14:06;18.80;99.90
20998;DHT22;10657;51.276;6.390;2023-08-17T08:16:32;18.80;99.90
20998;DHT22;10657;51.276;6.390;2023-08-17T08:18:59;19.00;99.90
20998;DHT22;10657;51.276;6.390;2023-08-17T08:21:26;19.10;99.90
20998;DHT22;10657;51.276;6.390;2023-08-17T08:23:54;19.00;99.90
20998;DHT22;10657;51.276;6.390;2023-08-17T08:26:21;18.90;99.90
20998;DHT22;10657;51.276;6.390;2023-08-17T08:28:47;19.00;99.90
20998;DHT22;10657;51.276;6.390;2023-08-17T08:31:14;19.10;99.90
20998;DHT22;10657;51.276;6.390;2023-08-17T08:33:41;19.00;99.90
20998;DHT22;10657;51.276;6.390;2023-08-17T08:36:08;19.10;99.90
20998;DHT22;10657;51.276;6.390;2023-08-17T08:38:34;19.00;99.90
20998;DHT22;10657;51.276;6.390;2023-08-17T08:41:02;19.10;99.90
20998;DHT22;10657;51.276;6.390;2023-08-17T08:43:29;19.00;99.90
20998;DHT22;10657;51.276;6.390;2023-08-17T08:45:57;19.20;99.90
20998;DHT22;10657;51.276;6.390;2023-08-17T08:48:26;19.20;99.90
20998;DHT22;10657;51.276;6.390;2023-08-17T08:50:55;19.30;99.90
20998;DHT22;10657;51.276;6.390;2023-08-17T08:53:37;19.20;99.90
20998;DHT22;10657;51.276;6.390;2023-08-17T08:56:07;19.20;99.90
20998;DHT22;10657;51.276;6.390;2023-08-17T08:58:38;19.20;99.90
20998;DHT22;10657;51.276;6.390;2023-08-17T09:01:08;19.30;99.90
20998;DHT22;10657;51.276;6.390;2023-08-17T09:03:36;19.30;99.90
20998;DHT22;10657;51.276;6.390;2023-08-17T09:06:04;19.30;99.90
20998;DHT22;10657;51.276;6.390;2023-08-17T09:08:31;19.30;99.90
20998;DHT22;10657;51.276;6.390;2023-08-17T09:10:57;19.30;99.90
20998;DHT22;10657;51.276;6.390;2023-08-17T09:13:24;19.30;99.90
20998;DHT22;10657;51.276;6.390;2023-08-17T09:15:51;19.10;99.90
20998;DHT22;10657;51.276;6.390;2023-08-17T09:18:19;19.00;99.90
20998;DHT22;10657;51.276;6.390;2023-08-17T09:20:47;19.00;99.90
20998;DHT22;10657;51.276;6.390;2023-08-17T09:23:17;18.90;99.90
20998;DHT22;10657;51.276;6.390;2023-08-17T09:25:45;19.00;99.90
20998;DHT22;10657;51.276;6.390;2023-08-17T09:28:18;19.30;99.90
20998;DHT22;10657;51.276;6.390;2023-08-17T09:31:00;19.50;99.90
20998;DHT22;10657;51.276;6.390;2023-08-17T09:33:29;19.30;99.90
20998;DHT22;10657;51.276;6.390;2023-08-17T09:35:57;19.40;99.90
20998;DHT22;10657;51.276;6.390;2023-08-17T09:38:26;19.40;99.90
20998;DHT22;10657;51.276;6.390;2023-08-17T09:40:54;19.50;99.90
20998;DHT22;10657;51.276;6.390;2023-08-17T09:43:21;19.50;99.90
20998;DHT22;10657;51.276;6.390;2023-08-17T09:45:48;19.70;99.90
20998;DHT22;10657;51.276;6.390;2023-08-17T09:48:17;19.50;99.90
20998;DHT22;10657;51.276;6.390;2023-08-17T09:50:46;19.50;99.90
20998;DHT22;10657;51.276;6.390;2023-08-17T09:53:14;19.50;99.90
20998;DHT22;10657;51.276;6.390;2023-08-17T09:55:42;19.70;99.90
20998;DHT22;10657;51.276;6.390;2023-08-17T09:58:10;19.90;99.90
20998;DHT22;10657;51.276;6.390;2023-08-17T10:00:49;19.90;99.90
20998;DHT22;10657;51.276;6.390;2023-08-17T10:03:18;20.10;99.90
20998;DHT22;10657;51.276;6.390;2023-08-17T10:05:56;19.90;99.90
20998;DHT22;10657;51.276;6.390;2023-08-17T10:08:28;19.80;99.90
20998;DHT22;10657;51.276;6.390;2023-08-17T10:10:57;19.80;99.90
20998;DHT22;10657;51.276;6.390;2023-08-17T10:13:35;19.60;99.90
20998;DHT22;10657;51.276;6.390;2023-08-17T10:19:05;19.90;99.90
20998;DHT22;10657;51.276;6.390;2023-08-17T10:21:39;19.90;99.90
20998;DHT22;10657;51.276;6.390;2023-08-17T10:24:09;19.80;99.90
20998;DHT22;10657;51.276;6.390;2023-08-17T10:26:36;19.90;99.90
20998;DHT22;10657;51.276;6.390;2023-08-17T10:29:03;19.80;99.90
20998;DHT22;10657;51.276;6.390;2023-08-17T10:31:44;20.20;99.90
20998;DHT22;10657;51.276;6.390;2023-08-17T10:34:13;20.20;99.90
20998;DHT22;10657;51.276;6.390;2023-08-17T10:36:41;20.00;99.90
20998;DHT22;10657;51.276;6.390;2023-08-17T10:39:28;19.90;99.90
20998;DHT22;10657;51.276;6.390;2023-08-17T10:41:57;19.70;99.90
20998;DHT22;10657;51.276;6.390;2023-08-17T10:44:46;19.80;99.90
20998;DHT22;10657;51.276;6.390;2023-08-17T10:47:28;19.90;99.90
20998;DHT22;10657;51.276;6.390;2023-08-17T10:50:22;20.30;99.90
20998;DHT22;10657;51.276;6.390;2023-08-17T10:52:50;20.00;99.90
20998;DHT22;10657;51.276;6.390;2023-08-17T10:55:36;20.10;99.90
20998;DHT22;10657;51.276;6.390;2023-08-17T10:58:03;20.00;99.90
20998;DHT22;10657;51.276;6.390;2023-08-17T11:00:35;20.00;99.90
20998;DHT22;10657;51.276;6.390;2023-08-17T11:03:07;20.20;99.90
20998;DHT22;10657;51.276;6.390;2023-08-17T11:05:53;20.10;99.90
20998;DHT22;10657;51.276;6.390;2023-08-17T11:08:28;20.40;99.90
20998;DHT22;10657;51.276;6.390;2023-08-17T11:11:07;20.50;99.90
20998;DHT22;10657;51.276;6.390;2023-08-17T11:13:43;20.70;99.90
20998;DHT22;10657;51.276;6.390;2023-08-17T11:16:12;20.80;99.90
20998;DHT22;10657;51.276;6.390;2023-08-17T11:18:44;20.80;99.90
20998;DHT22;10657;51.276;6.390;2023-08-17T11:21:11;20.80;99.90
20998;DHT22;10657;51.276;6.390;2023-08-17T11:23:38;20.70;99.90
20998;DHT22;10657;51.276;6.390;2023-08-17T11:26:04;20.40;99.90
20998;DHT22;10657;51.276;6.390;2023-08-17T11:28:32;20.40;99.90
20998;DHT22;10657;51.276;6.390;2023-08-17T11:31:09;20.60;99.90
20998;DHT22;10657;51.276;6.390;2023-08-17T11:33:37;20.60;99.90
20998;DHT22;10657;51.276;6.390;2023-08-17T11:36:06;20.50;99.90
20998;DHT22;10657;51.276;6.390;2023-08-17T11:38:35;20.30;99.90
20998;DHT22;10657;51.276;6.390;2023-08-17T11:41:02;20.30;99.90
20998;DHT22;10657;51.276;6.390;2023-08-17T11:43:33;20.40;99.90
20998;DHT22;10657;51.276;6.390;2023-08-17T11:46:01;20.50;99.90
20998;DHT22;10657;51.276;6.390;2023-08-17T11:48:29;20.40;99.90
20998;DHT22;10657;51.276;6.390;2023-08-17T11:51:02;20.40;99.90
20998;DHT22;10657;51.276;6.390;2023-08-17T11:53:34;20.60;99.90
20998;DHT22;10657;51.276;6.390;2023-08-17T11:56:02;20.70;99.90
20998;DHT22;10657;51.276;6.390;2023-08-17T11:58:42;20.60;99.90
20998;DHT22;10657;51.276;6.390;2023-08-17T12:01:11;20.60;99.90
20998;DHT22;10657;51.276;6.390;2023-08-17T12:03:39;20.70;99.90
20998;DHT22;10657;51.276;6.390;2023-08-17T12:06:06;20.80;99.90
20998;DHT22;10657;51.276;6.390;2023-08-17T12:08:34;20.80;99.90
20998;DHT22;10657;51.276;6.390;2023-08-17T12:11:02;21.00;99.90
20998;DHT22;10657;51.276;6.390;2023-08-17T12:13:35;20.90;99.90
20998;DHT22;10657;51.276;6.390;2023-08-17T12:16:02;21.00;99.90
20998;DHT22;10657;51.276;6.390;2023-08-17T12:18:33;21.10;99.90
20998;DHT22;10657;51.276;6.390;2023-08-17T12:21:00;21.10;99.90
20998;DHT22;10657;51.276;6.390;2023-08-17T12:23:28;21.10;99.90
20998;DHT22;10657;51.276;6.390;2023-08-17T12:25:55;21.10;99.90
20998;DHT22;10657;51.276;6.390;2023-08-17T12:28:25;21.20;99.90
20998;DHT22;10657;51.276;6.390;2023-08-17T12:31:02;21.20;99.90
20998;DHT22;10657;51.276;6.390;2023-08-17T12:33:29;21.20;99.90
20998;DHT22;10657;51.276;6.390;2023-08-17T12:35:56;21.20;99.90
20998;DHT22;10657;51.276;6.390;2023-08-17T12:38:24;21.20;99.90
20998;DHT22;10657;51.276;6.390;2023-08-17T12:40:52;21.30;99.90
20998;DHT22;10657;51.276;6.390;2023-08-17T12:43:19;21.30;99.90
20998;DHT22;10657;51.276;6.390;2023-08-17T12:45:45;21.50;99.90
20998;DHT22;10657;51.276;6.390;2023-08-17T12:48:12;21.40;99.90
20998;DHT22;10657;51.276;6.390;2023-08-17T12:50:39;21.50;99.90
20998;DHT22;10657;51.276;6.390;2023-08-17T12:53:09;21.50;99.90
20998;DHT22;10657;51.276;6.390;2023-08-17T12:55:35;21.50;99.90
20998;DHT22;10657;51.276;6.390;2023-08-17T12:58:03;21.40;99.90
20998;DHT22;10657;51.276;6.390;2023-08-17T13:00:29;21.30;99.90
20998;DHT22;10657;51.276;6.390;2023-08-17T13:02:56;21.30;99.90
20998;DHT22;10657;51.276;6.390;2023-08-17T13:05:23;21.30;99.90
20998;DHT22;10657;51.276;6.390;2023-08-17T13:07:50;21.30;99.90
20998;DHT22;10657;51.276;6.390;2023-08-17T13:10:16;21.30;99.90
20998;DHT22;10657;51.276;6.390;2023-08-17T13:12:43;21.30;99.90
20998;DHT22;10657;51.276;6.390;2023-08-17T13:15:10;21.30;99.90
20998;DHT22;10657;51.276;6.390;2023-08-17T13:17:37;21.20;99.90
20998;DHT22;10657;51.276;6.390;2023-08-17T13:20:04;21.20;99.90
20998;DHT22;10657;51.276;6.390;2023-08-17T13:22:32;21.20;99.90
20998;DHT22;10657;51.276;6.390;2023-08-17T13:24:59;21.20;99.90
20998;DHT22;10657;51.276;6.390;2023-08-17T13:27:27;21.10;99.90
20998;DHT22;10657;51.276;6.390;2023-08-17T13:29:54;21.00;99.90
20998;DHT22;10657;51.276;6.390;2023-08-17T13:32:20;21.00;99.90
20998;DHT22;10657;51.276;6.390;2023-08-17T13:34:47;21.00;99.90
20998;DHT22;10657;51.276;6.390;2023-08-17T13:37:14;21.10;99.90
20998;DHT22;10657;51.276;6.390;2023-08-17T13:39:41;21.00;99.90
20998;DHT22;10657;51.276;6.390;2023-08-17T13:42:08;21.00;99.90
20998;DHT22;10657;51.276;6.390;2023-08-17T13:44:35;20.90;99.90
20998;DHT22;10657;51.276;6.390;2023-08-17T13:47:02;20.80;99.90
20998;DHT22;10657;51.276;6.390;2023-08-17T13:49:28;20.90;99.90
20998;DHT22;10657;51.276;6.390;2023-08-17T13:51:55;20.90;99.90
20998;DHT22;10657;51.276;6.390;2023-08-17T13:54:24;20.90;99.90
20998;DHT22;10657;51.276;6.390;2023-08-17T13:56:51;20.80;99.90
20998;DHT22;10657;51.276;6.390;2023-08-17T13:59:18;20.80;99.90
20998;DHT22;10657;51.276;6.390;2023-08-17T14:01:44;20.80;99.90
20998;DHT22;10657;51.276;6.390;2023-08-17T14:04:11;20.90;99.90
20998;DHT22;10657;51.276;6.390;2023-08-17T14:06:40;20.90;99.90
20998;DHT22;10657;51.276;6.390;2023-08-17T14:09:07;20.90;99.90
20998;DHT22;10657;51.276;6.390;2023-08-17T14:11:33;20.80;99.90
20998;DHT22;10657;51.276;6.390;2023-08-17T14:14:00;20.80;99.90
20998;DHT22;10657;51.276;6.390;2023-08-17T14:16:27;20.80;99.90
20998;DHT22;10657;51.276;6.390;2023-08-17T14:18:54;20.90;99.90
20998;DHT22;10657;51.276;6.390;2023-08-17T14:21:21;20.90;99.90
20998;DHT22;10657;51.276;6.390;2023-08-17T14:23:48;21.00;99.90
20998;DHT22;10657;51.276;6.390;2023-08-17T14:26:15;21.00;99.90
20998;DHT22;10657;51.276;6.390;2023-08-17T14:28:42;20.90;99.90
20998;DHT22;10657;51.276;6.390;2023-08-17T14:31:13;20.80;99.90
20998;DHT22;10657;51.276;6.390;2023-08-17T14:33:44;20.70;99.90
20998;DHT22;10657;51.276;6.390;2023-08-17T14:36:14;20.80;99.90
20998;DHT22;10657;51.276;6.390;2023-08-17T14:38:45;21.10;99.90
20998;DHT22;10657;51.276;6.390;2023-08-17T14:41:12;21.10;99.90
20998;DHT22;10657;51.276;6.390;2023-08-17T14:43:39;21.10;99.90
20998;DHT22;10657;51.276;6.390;2023-08-17T14:46:06;21.00;99.90
20998;DHT22;10657;51.276;6.390;2023-08-17T14:48:32;21.00;99.90
20998;DHT22;10657;51.276;6.390;2023-08-17T14:50:59;21.00;99.90
20998;DHT22;10657;51.276;6.390;2023-08-17T14:53:26;21.20;99.90
20998;DHT22;10657;51.276;6.390;2023-08-17T14:55:53;21.20;99.90
20998;DHT22;10657;51.276;6.390;2023-08-17T14:58:20;21.30;99.90
20998;DHT22;10657;51.276;6.390;2023-08-17T15:00:47;21.20;99.90
20998;DHT22;10657;51.276;6.390;2023-08-17T15:03:13;21.20;99.90
20998;DHT22;10657;51.276;6.390;2023-08-17T15:05:40;21.20;99.90
20998;DHT22;10657;51.276;6.390;2023-08-17T15:08:07;21.30;99.90
20998;DHT22;10657;51.276;6.390;2023-08-17T15:10:34;21.40;99.90
20998;DHT22;10657;51.276;6.390;2023-08-17T15:13:01;21.30;99.90
20998;DHT22;10657;51.276;6.390;2023-08-17T15:15:28;21.30;99.90
20998;DHT22;10657;51.276;6.390;2023-08-17T15:17:55;21.20;99.90
20998;DHT22;10657;51.276;6.390;2023-08-17T15:20:22;21.10;99.90
20998;DHT22;10657;51.276;6.390;2023-08-17T15:22:48;21.10;99.90
20998;DHT22;10657;51.276;6.390;2023-08-17T15:25:15;21.10;99.90
20998;DHT22;10657;51.276;6.390;2023-08-17T15:27:42;21.00;99.90
20998;DHT22;10657;51.276;6.390;2023-08-17T15:30:09;21.00;99.90
20998;DHT22;10657;51.276;6.390;2023-08-17T15:32:35;21.00;99.90
20998;DHT22;10657;51.276;6.390;2023-08-17T15:35:02;21.20;99.90
20998;DHT22;10657;51.276;6.390;2023-08-17T15:37:29;21.20;99.90
20998;DHT22;10657;51.276;6.390;2023-08-17T15:39:56;21.20;99.90
20998;DHT22;10657;51.276;6.390;2023-08-17T15:42:23;21.30;99.90